Thunder radar more information blitzortung!


Radar de pluja more information rain snow radar


Visita la nostra xarxa de llocs de meteo:

Template documentation
and downloads

And another site



No particular awareness of the weather is required.    There are no Weather-warnings

Pagina Historial Weather Underground text

Diari Resum January 15, 2016 Unitats:  Mètric    Imperial   Tant
« Previous Dia
SegĂźent Dia »
Diari Setmana Mensual Anual Personalitzada
  Maxima: Minima: Media:
Temperatura: 11.5 °C 6.3 °C 9.4 °C
Punt de rosada: 3.2 °C -10.1 °C -1.1 °C
Humitat: 62 % 30 % 49 %
Wind Speed: 13.0 km/h 0.0 km/h 3.7 km/h
RĂ fegues de vent: 16.1 km/h - -
Vent:- - WSW
Pression baro: 1021.9 hPa 1018.8 hPa -
Precipitacions: 0.0 mm    
Historical Graphs
 
 
Dades de taula per January 15, 2016
Temps Temperatura Punt de rosada Pression baro Vent Wind Speed RĂ fegues de vent Humitat Rainfall Rate (Hourly)
11:35 10.0 °C 3.1 °C 1020.9 hPa West 1.6 km/h 4.8 km/h 62 % 0.0 mm
11:40 9.8 °C 2.6 °C 1020.9 hPa North 1.6 km/h 3.2 km/h 61 % 0.0 mm
11:50 10.1 °C 3.2 °C 1020.9 hPa WNW 2.6 km/h   62 % 0.0 mm
11:55 10.3 °C 3.1 °C 1019.9 hPa Calm   4.8 km/h 61 % 0.0 mm
12:00 10.2 °C 3.1 °C 1019.9 hPa ENE 3.2 km/h 8.0 km/h 61 % 0.0 mm
12:05 10.4 °C 3.2 °C 1019.9 hPa NE 3.2 km/h 4.8 km/h 61 % 0.0 mm
12:10 10.2 °C 3.1 °C 1020.9 hPa NE 3.2 km/h 9.7 km/h 61 % 0.0 mm
12:15 10.1 °C 2.7 °C 1020.9 hPa NE 3.2 km/h 9.7 km/h 60 % 0.0 mm
12:20 10.1 °C 2.7 °C 1020.9 hPa NNE 3.7 km/h 3.7 km/h 60 % 0.0 mm
12:25 10.1 °C 2.7 °C 1019.9 hPa Calm   4.8 km/h 60 % 0.0 mm
12:30 10.1 °C 2.7 °C 1019.9 hPa NNW 1.9 km/h 1.9 km/h 60 % 0.0 mm
12:35 10.1 °C 2.7 °C 1019.9 hPa NNW 1.6 km/h 3.2 km/h 60 % 0.0 mm
12:40 10.3 °C 2.9 °C 1019.9 hPa WNW 1.6 km/h 3.2 km/h 60 % 0.0 mm
12:45 10.5 °C 3.1 °C 1019.9 hPa NNW 3.7 km/h 3.7 km/h 60 % 0.0 mm
12:50 10.5 °C 3.1 °C 1019.9 hPa WSW 3.2 km/h 9.7 km/h 60 % 0.0 mm
12:55 10.3 °C 2.6 °C 1019.9 hPa WSW 1.6 km/h 9.7 km/h 59 % 0.0 mm
13:00 10.4 °C 2.7 °C 1019.9 hPa West 5.6 km/h 5.6 km/h 59 % 0.0 mm
13:05 10.4 °C 2.7 °C 1019.9 hPa SSW 7.4 km/h 7.4 km/h 59 % 0.0 mm
13:10 10.3 °C 2.4 °C 1019.9 hPa SW 1.9 km/h 1.9 km/h 58 % 0.0 mm
13:15 10.6 °C 2.7 °C 1019.9 hPa NW 3.7 km/h 3.7 km/h 58 % 0.0 mm
13:20 10.4 °C 2.5 °C 1019.9 hPa SW 3.7 km/h 3.7 km/h 58 % 0.0 mm
13:25 10.4 °C 2.5 °C 1019.9 hPa ENE 3.7 km/h 3.7 km/h 58 % 0.0 mm
13:30 10.4 °C 2.2 °C 1019.9 hPa SW 5.6 km/h 5.6 km/h 57 % 0.0 mm
13:35 10.4 °C 2.5 °C 1019.9 hPa SW 5.6 km/h 5.6 km/h 58 % 0.0 mm
13:40 10.5 °C 2.3 °C 1018.8 hPa WSW 5.6 km/h 5.6 km/h 57 % 0.0 mm
13:45 10.6 °C 2.4 °C 1018.8 hPa South 3.7 km/h 3.7 km/h 57 % 0.0 mm
13:50 10.8 °C 2.6 °C 1018.8 hPa SW 3.2 km/h 6.4 km/h 57 % 0.0 mm
13:55 10.8 °C 2.6 °C 1018.8 hPa WSW 3.2 km/h 8.0 km/h 57 % 0.0 mm
14:00 10.9 °C 2.7 °C 1018.8 hPa WSW 3.2 km/h 6.4 km/h 57 % 0.0 mm
14:05 11.0 °C 2.6 °C 1018.8 hPa WSW 4.8 km/h 6.4 km/h 56 % 0.0 mm
14:10 10.9 °C 2.4 °C 1018.8 hPa WSW 3.2 km/h 9.7 km/h 56 % 0.0 mm
14:15 10.7 °C 2.0 °C 1018.8 hPa WSW 4.8 km/h 11.3 km/h 55 % 0.0 mm
14:20 10.6 °C 1.9 °C 1018.8 hPa WSW 3.2 km/h 9.7 km/h 55 % 0.0 mm
14:25 10.6 °C 1.9 °C 1018.8 hPa WSW 3.2 km/h 9.7 km/h 55 % 0.0 mm
14:30 10.7 °C 1.8 °C 1018.8 hPa WSW 4.8 km/h 8.0 km/h 54 % 0.0 mm
14:35 10.6 °C 1.7 °C 1018.8 hPa WSW 3.2 km/h 8.0 km/h 54 % 0.0 mm
14:40 10.6 °C 1.7 °C 1018.8 hPa WSW 5.6 km/h 5.6 km/h 54 % 0.0 mm
14:45 10.5 °C 1.6 °C 1018.8 hPa WSW 3.2 km/h 8.0 km/h 54 % 0.0 mm
14:50 10.4 °C 1.4 °C 1018.8 hPa WSW 3.2 km/h 9.7 km/h 54 % 0.0 mm
14:55 10.3 °C 1.4 °C 1018.8 hPa WSW 3.2 km/h 11.3 km/h 54 % 0.0 mm
15:00 10.4 °C 1.5 °C 1018.8 hPa WSW 1.6 km/h 4.8 km/h 54 % 0.0 mm
15:05 10.6 °C 1.7 °C 1018.8 hPa WSW 3.2 km/h 8.0 km/h 54 % 0.0 mm
15:15 10.6 °C 1.7 °C 1018.8 hPa WSW 3.2 km/h 8.0 km/h 54 % 0.0 mm
15:20 10.6 °C 1.7 °C 1018.8 hPa WSW 4.8 km/h 8.0 km/h 54 % 0.0 mm
15:25 10.7 °C 1.4 °C 1018.8 hPa WSW 3.2 km/h 9.7 km/h 53 % 0.0 mm
15:30 11.0 °C 1.8 °C 1018.8 hPa WNW 5.6 km/h   53 % 0.0 mm
15:35 10.8 °C 1.6 °C 1018.8 hPa WSW 3.2 km/h 12.9 km/h 53 % 0.0 mm
15:40 10.7 °C 1.2 °C 1018.8 hPa WSW 3.2 km/h 12.9 km/h 52 % 0.0 mm
15:45 10.8 °C 1.3 °C 1018.8 hPa West 3.2 km/h 8.0 km/h 52 % 0.0 mm
15:50 10.9 °C 1.4 °C 1018.8 hPa WSW 7.4 km/h 7.4 km/h 52 % 0.0 mm
15:55 10.9 °C 1.4 °C 1018.8 hPa WSW 4.8 km/h 9.7 km/h 52 % 0.0 mm
16:00 10.9 °C 1.4 °C 1018.8 hPa WSW 3.2 km/h 6.4 km/h 52 % 0.0 mm
16:05 10.8 °C 1.3 °C 1018.8 hPa WSW 4.8 km/h 9.7 km/h 52 % 0.0 mm
16:10 11.0 °C 1.5 °C 1018.8 hPa West 3.2 km/h 8.0 km/h 52 % 0.0 mm
16:15 11.1 °C 1.6 °C 1018.8 hPa West 4.8 km/h 9.7 km/h 52 % 0.0 mm
16:20 11.2 °C 1.7 °C 1018.8 hPa West 1.6 km/h 6.4 km/h 52 % 0.0 mm
16:25 11.5 °C 2.0 °C 1018.8 hPa Calm   4.8 km/h 52 % 0.0 mm
16:30 11.3 °C 1.5 °C 1018.8 hPa WSW 3.2 km/h 9.7 km/h 51 % 0.0 mm
16:35 11.1 °C 1.6 °C 1018.8 hPa West 1.6 km/h 4.8 km/h 52 % 0.0 mm
16:40 10.9 °C 1.2 °C 1018.8 hPa WSW 4.8 km/h 9.7 km/h 51 % 0.0 mm
16:45 11.2 °C 1.4 °C 1018.8 hPa WSW 3.2 km/h 8.0 km/h 51 % 0.0 mm
16:50 11.4 °C 1.6 °C 1018.8 hPa WSW 4.8 km/h 6.4 km/h 51 % 0.0 mm
16:55 11.2 °C 1.4 °C 1018.8 hPa WSW 4.8 km/h 9.7 km/h 51 % 0.0 mm
17:00 11.1 °C 1.3 °C 1018.8 hPa WSW 1.6 km/h 9.7 km/h 51 % 0.0 mm
17:05 11.1 °C 1.0 °C 1018.8 hPa WSW 3.2 km/h 9.7 km/h 50 % 0.0 mm
17:10 11.1 °C 1.3 °C 1018.8 hPa SSW 3.7 km/h 3.7 km/h 51 % 0.0 mm
17:15 10.9 °C 1.2 °C 1018.8 hPa WSW 3.2 km/h 6.4 km/h 51 % 0.0 mm
17:20 10.7 °C 0.9 °C 1018.8 hPa WSW 5.6 km/h 5.6 km/h 51 % 0.0 mm
17:25 10.7 °C 0.9 °C 1018.8 hPa WSW 4.8 km/h 9.7 km/h 51 % 0.0 mm
17:30 10.5 °C 0.5 °C 1018.8 hPa SW 3.2 km/h 8.0 km/h 50 % 0.0 mm
17:35 10.2 °C 0.2 °C 1018.8 hPa WSW 4.8 km/h 11.3 km/h 50 % 0.0 mm
17:40 9.8 °C -0.1 °C 1019.9 hPa WSW 4.8 km/h 9.7 km/h 50 % 0.0 mm
17:45 9.7 °C -0.2 °C 1019.9 hPa WSW 3.2 km/h 9.7 km/h 50 % 0.0 mm
17:50 9.6 °C -0.4 °C 1019.9 hPa WSW 3.2 km/h 6.4 km/h 50 % 0.0 mm
17:55 9.3 °C -0.3 °C 1018.8 hPa WSW 3.2 km/h 8.0 km/h 51 % 0.0 mm
18:05 9.0 °C -0.6 °C 1018.8 hPa WSW 1.6 km/h 8.0 km/h 51 % 0.0 mm
18:10 8.9 °C -0.7 °C 1019.9 hPa WSW 3.2 km/h 4.8 km/h 51 % 0.0 mm
18:15 8.8 °C -0.8 °C 1019.9 hPa WSW 3.2 km/h 9.7 km/h 51 % 0.0 mm
18:20 8.8 °C -0.8 °C 1019.9 hPa WNW 3.7 km/h 3.7 km/h 51 % 0.0 mm
18:25 8.8 °C -0.8 °C 1019.9 hPa WSW 1.6 km/h 6.4 km/h 51 % 0.0 mm
18:30 8.7 °C -0.6 °C 1019.9 hPa WSW 3.2 km/h 8.0 km/h 52 % 0.0 mm
18:35 8.4 °C -0.9 °C 1019.9 hPa WSW 3.2 km/h 6.4 km/h 52 % 0.0 mm
18:40 8.2 °C -1.1 °C 1019.9 hPa SW 4.8 km/h 8.0 km/h 52 % 0.0 mm
18:45 7.9 °C -1.1 °C 1019.9 hPa SW 4.8 km/h 9.7 km/h 53 % 0.0 mm
18:50 7.8 °C -1.2 °C 1019.9 hPa SW 4.8 km/h 8.0 km/h 53 % 0.0 mm
18:55 7.7 °C -1.3 °C 1019.9 hPa WSW 3.2 km/h 6.4 km/h 53 % 0.0 mm
19:00 7.7 °C -1.1 °C 1019.9 hPa WSW 3.2 km/h 8.0 km/h 54 % 0.0 mm
19:05 7.8 °C -0.9 °C 1019.9 hPa WSW 1.6 km/h 12.9 km/h 54 % 0.0 mm
19:10 7.7 °C -1.1 °C 1019.9 hPa WSW 1.6 km/h 4.8 km/h 54 % 0.0 mm
19:15 7.6 °C -1.1 °C 1019.9 hPa WSW 3.2 km/h 8.0 km/h 54 % 0.0 mm
19:20 7.7 °C -0.8 °C 1019.9 hPa SW 4.8 km/h 9.7 km/h 55 % 0.0 mm
19:25 7.8 °C -0.7 °C 1019.9 hPa SW 4.8 km/h 9.7 km/h 55 % 0.0 mm
19:30 7.7 °C -0.6 °C 1019.9 hPa SW 3.5 km/h   56 % 0.0 mm
19:35 7.5 °C -0.9 °C 1019.9 hPa Calm   3.2 km/h 55 % 0.0 mm
19:40 7.3 °C -1.2 °C 1018.8 hPa WSW 1.6 km/h 4.8 km/h 55 % 0.0 mm
19:45 7.3 °C -1.2 °C 1018.8 hPa WSW 3.2 km/h 8.0 km/h 55 % 0.0 mm
19:50 7.2 °C -1.2 °C 1018.8 hPa SW 3.7 km/h 3.7 km/h 55 % 0.0 mm
19:55 7.1 °C -1.6 °C 1019.9 hPa SW 3.2 km/h 4.8 km/h 54 % 0.0 mm
20:00 7.1 °C -1.6 °C 1019.9 hPa Calm   8.0 km/h 54 % 0.0 mm
20:05 6.9 °C -2.3 °C 1019.9 hPa WSW 3.2 km/h 3.2 km/h 52 % 0.0 mm
20:15 7.0 °C -2.4 °C 1019.9 hPa Calm   1.6 km/h 51 % 0.0 mm
20:20 7.0 °C -3.0 °C 1019.9 hPa SW 3.2 km/h 3.2 km/h 49 % 0.0 mm
20:25 7.0 °C -3.0 °C 1019.9 hPa West 3.2 km/h 9.7 km/h 49 % 0.0 mm
20:30 7.0 °C -3.0 °C 1019.9 hPa NE 3.9 km/h 3.9 km/h 49 % 0.0 mm
20:35 7.8 °C -3.4 °C 1019.9 hPa West 3.2 km/h 6.4 km/h 45 % 0.0 mm
20:40 8.1 °C -4.0 °C 1019.9 hPa West 3.2 km/h 9.7 km/h 42 % 0.0 mm
20:45 8.5 °C -4.7 °C 1019.9 hPa West 3.2 km/h 8.0 km/h 39 % 0.0 mm
20:50 8.7 °C -4.8 °C 1019.9 hPa WSW 5.6 km/h 5.6 km/h 38 % 0.0 mm
20:55 8.8 °C -5.8 °C 1019.9 hPa WNW 8.0 km/h 9.7 km/h 35 % 0.0 mm
21:00 9.0 °C -6.4 °C 1019.9 hPa SSE 13.0 km/h 13.0 km/h 33 % 0.0 mm
21:05 9.2 °C -6.3 °C 1019.9 hPa NW 4.8 km/h 14.5 km/h 33 % 0.0 mm
21:10 9.2 °C -6.3 °C 1020.9 hPa NNW 11.1 km/h 11.1 km/h 33 % 0.0 mm
21:15 9.2 °C -6.3 °C 1020.9 hPa NNW 7.4 km/h 7.4 km/h 33 % 0.0 mm
21:20 9.2 °C -6.3 °C 1020.9 hPa NNW 8.0 km/h 16.1 km/h 33 % 0.0 mm
21:25 9.0 °C -6.8 °C 1021.9 hPa WNW 3.2 km/h 8.0 km/h 32 % 0.0 mm
21:30 8.9 °C -6.9 °C 1021.9 hPa West 3.2 km/h 11.3 km/h 32 % 0.0 mm
21:35 8.8 °C -7.0 °C 1021.9 hPa WSW 3.2 km/h 11.3 km/h 32 % 0.0 mm
21:40 8.7 °C -7.5 °C 1020.9 hPa WSW 4.8 km/h 8.0 km/h 31 % 0.0 mm
21:50 8.5 °C -7.7 °C 1020.9 hPa West 7.4 km/h 7.4 km/h 31 % 0.0 mm
21:55 8.5 °C -7.7 °C 1021.9 hPa WSW 3.2 km/h 9.7 km/h 31 % 0.0 mm
22:00 8.4 °C -7.8 °C 1021.9 hPa NW 3.2 km/h 9.7 km/h 31 % 0.0 mm
22:05 8.3 °C -7.9 °C 1021.9 hPa WNW 4.8 km/h 9.7 km/h 31 % 0.0 mm
22:10 8.2 °C -7.9 °C 1021.9 hPa NNE 5.6 km/h 5.6 km/h 31 % 0.0 mm
22:15 8.2 °C -7.9 °C 1021.9 hPa West 3.2 km/h 8.0 km/h 31 % 0.0 mm
22:25 8.0 °C -8.6 °C 1021.9 hPa West 4.8 km/h 9.7 km/h 30 % 0.0 mm
22:30 7.9 °C -8.7 °C 1021.9 hPa West 4.8 km/h 12.9 km/h 30 % 0.0 mm
22:40 7.7 °C -8.8 °C 1021.9 hPa NW 1.9 km/h 2.3 km/h 30 % 0.0 mm
22:45 7.7 °C -8.8 °C 1021.9 hPa West 3.2 km/h 6.4 km/h 30 % 0.0 mm
22:50 7.6 °C -8.9 °C 1021.9 hPa WNW 3.2 km/h 6.4 km/h 30 % 0.0 mm
22:55 7.6 °C -8.9 °C 1021.9 hPa West 3.2 km/h 6.4 km/h 30 % 0.0 mm
23:00 7.6 °C -8.9 °C 1021.9 hPa West 1.6 km/h 4.8 km/h 30 % 0.0 mm
23:05 7.6 °C -8.9 °C 1021.9 hPa West 3.2 km/h 6.4 km/h 30 % 0.0 mm
23:10 7.6 °C -8.9 °C 1021.9 hPa SSW 6.9 km/h 6.9 km/h 30 % 0.0 mm
23:15 7.6 °C -8.9 °C 1021.9 hPa WSW 4.8 km/h 8.0 km/h 30 % 0.0 mm
23:20 6.3 °C -10.1 °C 1021.9 hPa WSW 4.8 km/h 8.0 km/h 30 % 0.0 mm
23:25 6.3 °C -10.1 °C 1021.9 hPa WSW 4.8 km/h 9.7 km/h 30 % 0.0 mm
23:30 6.3 °C -10.1 °C 1021.9 hPa SW 3.2 km/h 8.0 km/h 30 % 0.0 mm
23:35 6.3 °C -10.1 °C 1021.9 hPa SW 4.8 km/h 12.9 km/h 30 % 0.0 mm
Meteo Sesrovires
Elogis d' Weather Underground - 3.25 mb

Guio original per  Jim McMurry - jmcmurry@mwt.net Adaptat per a la plantilla per  Wim van der Kuil - Leuven-Template.eu

Trobareu la nostra informacio del temps tambe a:

Weather Underground

AWEKAS